FW1474 Hermosillo MX current weather conditions

sailwx.info

Wind from 045 at 2 knots gusting 2

Air temperature 20.0° C
Dewpoint 17.2° C

Last reported at 2020-May-31 12:57 UTC.
Time now 2020-May-31 13:52 UTC

Location: N 28°46' W 111°34'.
View on Google Maps.

See reports from other nearby stations

  
Tides and Currents Weather Stations Pressure Air Temp Water Temp Dewpoint Dewpoint Depression Visibility Wind Speed Wind Dir Waves Ship Positions
date/time (UTC)wind fromknots sea level pressurealtimeterstation pressurevisibilityair tempwater tempwave heightnotes
2020-May-31 12:57 045 2 gusting 2 20.0
2020-May-31 12:47 045 1 gusting 2 19.4
2020-May-31 12:37 045 2 gusting 3 20.0
2020-May-31 12:27 067 0 gusting 0 20.0
2020-May-31 12:17 067 0 gusting 1 20.0
2020-May-31 12:07 067 1 gusting 2 20.6
2020-May-31 11:57 090 2 gusting 2 21.1
2020-May-31 11:47 112 2 gusting 3 21.1
2020-May-31 11:37 112 1 gusting 2 21.7
2020-May-31 11:27 112 1 gusting 2 21.7
2020-May-31 11:17 112 1 gusting 2 21.7
2020-May-31 11:07 090 2 gusting 2 21.7
2020-May-31 10:57 112 1 gusting 2 21.7
2020-May-31 10:47 112 1 gusting 2 21.7
2020-May-31 10:37 112 1 gusting 1 21.7
2020-May-31 10:27 112 2 gusting 2 22.2
2020-May-31 10:17 112 1 gusting 2 22.8
2020-May-31 10:07 112 1 gusting 1 22.2
2020-May-31 09:57 112 1 gusting 1 22.2
2020-May-31 09:47 112 0 gusting 1 22.2
2020-May-31 09:37 112 2 gusting 3 22.2
2020-May-31 09:27 135 2 gusting 3 22.2
2020-May-31 09:17 112 0 gusting 1 22.2
2020-May-31 09:07 112 1 gusting 1 22.2
2020-May-31 08:57 112 1 gusting 2 22.2
2020-May-31 08:47 090 2 gusting 2 22.8
2020-May-31 08:37 090 1 gusting 2 22.8
2020-May-31 08:27 112 2 gusting 3 23.3
2020-May-31 08:17 112 2 gusting 2 23.9
2020-May-31 08:07 135 2 gusting 3 23.9
2020-May-31 07:57 135 4 gusting 6 23.9
2020-May-31 07:47 135 3 gusting 4 23.9
2020-May-31 07:37 135 3 gusting 4 23.3
2020-May-31 05:38 135 1 gusting 2 24.4
2020-May-31 05:27 135 0 gusting 1 23.9
2020-May-31 05:17 135 2 gusting 2 24.4
2020-May-31 05:07 112 2 gusting 2 24.4
2020-May-31 04:57 135 1 gusting 1 25.0
2020-May-31 04:47 135 1 gusting 1 25.0
2020-May-31 04:37 135 2 gusting 3 25.6
2020-May-31 04:27 157 3 gusting 3 25.6
2020-May-31 04:17 180 3 gusting 4 26.1
2020-May-31 04:07 202 2 gusting 2 26.1
2020-May-31 03:57 202 1 gusting 1 26.1
2020-May-31 03:47 202 1 gusting 2 26.1
2020-May-31 03:37 247 2 gusting 3 26.7
2020-May-31 03:27 247 1 gusting 1 26.7
2020-May-31 03:17 247 2 gusting 2 27.2
2020-May-31 03:07 247 2 gusting 2 27.8
2020-May-31 02:57 225 2 gusting 3 28.3
2020-May-31 02:47 225 3 gusting 5 28.9
2020-May-31 02:37 202 4 gusting 5 29.4
2020-May-31 02:27 225 6 gusting 7 29.4
2020-May-31 02:17 202 5 gusting 7 30.0
2020-May-31 02:07 202 6 gusting 8 30.6
2020-May-31 01:57 202 7 gusting 8 31.1
2020-May-31 01:47 202 6 gusting 7 31.1
2020-May-31 01:37 225 5 gusting 6 31.7
2020-May-31 01:27 225 6 gusting 7 32.2
2020-May-31 01:17 225 5 gusting 6 32.2
2020-May-31 01:07 225 6 gusting 7 32.8
2020-May-31 00:57 225 6 gusting 7 33.3
2020-May-31 00:47 225 6 gusting 6 33.3
2020-May-31 00:37 225 7 gusting 9 33.9
2020-May-31 00:27 225 7 gusting 9 33.9
2020-May-31 00:17 225 8 gusting 10 34.4
2020-May-31 00:07 202 8 gusting 11 34.4
2020-May-30 23:57 225 8 gusting 11 34.4
2020-May-30 23:47 225 8 gusting 9 34.4
2020-May-30 23:37 225 10 gusting 13 35.0
2020-May-30 23:27 225 9 gusting 11 35.0
2020-May-30 23:17 225 8 gusting 10 35.0
2020-May-30 23:07 225 9 gusting 11 35.6
2020-May-30 22:57 225 11 gusting 13 35.6
2020-May-30 22:47 202 8 gusting 11 36.1
2020-May-30 22:37 202 9 gusting 13 36.1
2020-May-30 22:27 202 10 gusting 13 36.1
2020-May-30 22:17 202 9 gusting 12 36.1
2020-May-30 22:07 202 9 gusting 11 36.1
2020-May-30 21:57 225 8 gusting 12 36.7
2020-May-30 21:37 225 9 gusting 13 37.2
2020-May-30 21:28 202 9 gusting 12 36.7
2020-May-30 20:57 157 9 gusting 13 36.7
2020-May-30 20:47 157 6 gusting 9 36.7
2020-May-30 20:37 180 7 gusting 12 36.7
2020-May-30 20:27 180 8 gusting 13 36.7
2020-May-30 20:17 202 6 gusting 8 36.7
2020-May-30 20:07 180 7 gusting 9 36.7
2020-May-30 19:57 180 9 gusting 11 36.7
2020-May-30 19:47 157 7 gusting 10 36.7
2020-May-30 19:37 157 5 gusting 9 36.7
2020-May-30 19:27 180 7 gusting 13 36.7
2020-May-30 19:17 135 5 gusting 7 36.1
2020-May-30 19:07 225 4 gusting 6 36.7
2020-May-30 18:57 135 1 gusting 3 36.1
2020-May-30 18:47 180 5 gusting 6 36.1
2020-May-30 18:37 225 3 gusting 5 35.6
2020-May-30 18:27 112 1 gusting 1 35.6
2020-May-30 18:17 180 2 gusting 5 35.6
2020-May-30 18:07 180 3 gusting 6 35.0
2020-May-30 17:57 157 3 gusting 6 34.4
2020-May-30 17:47 157 1 gusting 2 33.9
2020-May-30 17:37 112 4 gusting 7 33.9
2020-May-30 17:27 180 4 gusting 6 33.3
2020-May-30 17:17 180 4 gusting 6 33.3
2020-May-30 17:07 135 1 gusting 4 32.8
2020-May-30 16:57 157 5 gusting 6 32.2
2020-May-30 16:47 180 3 gusting 5 31.7
2020-May-30 16:37 180 4 gusting 6 31.7
2020-May-30 16:27 31.1
2020-May-30 16:17 30.6
2020-May-30 16:07 157 1 gusting 2 30.6
2020-May-30 15:57 180 2 gusting 2 30.0
2020-May-30 15:47 225 0 gusting 1 30.0
2020-May-30 15:37 30.0
2020-May-30 15:27 29.4
2020-May-30 15:17 29.4
2020-May-30 15:07 28.9
2020-May-30 14:57 28.3
2020-May-30 14:47 022 1 gusting 2 27.8
2020-May-30 14:37 045 1 gusting 2 27.2
2020-May-30 14:27 045 2 gusting 2 26.7
2020-May-30 14:17 045 1 gusting 2 25.6
2020-May-30 14:07 045 1 gusting 2 25.0
2020-May-30 13:57 045 2 gusting 3 23.9
2020-May-30 13:47 045 2 gusting 3 22.8
2020-May-30 13:37 045 2 gusting 2 21.7
2020-May-30 13:27 045 1 gusting 2 21.1
2020-May-30 13:17 022 2 gusting 3 20.0
2020-May-30 13:07 022 2 gusting 2 19.4
2020-May-30 12:57 045 0 gusting 1 19.4
2020-May-30 12:47 045 0 gusting 1 18.9
2020-May-30 12:37 045 1 gusting 2 18.9
2020-May-30 12:27 045 0 gusting 1 18.9
2020-May-30 12:17 18.9
2020-May-30 12:07 19.4
2020-May-30 11:57 19.4
2020-May-30 11:47 045 1 gusting 2 19.4
2020-May-30 10:37 20.6
2020-May-30 10:27 067 0 gusting 1 20.6
2020-May-30 09:27 067 2 gusting 3 20.6
2020-May-30 08:37 135 3 gusting 3 20.6
2020-May-30 08:17 090 2 gusting 2 20.6
2020-May-30 08:08 090 0 gusting 1 20.6
2020-May-30 06:58 067 0 gusting 1 22.2
2020-May-30 06:47 22.2
2020-May-30 06:37 067 0 gusting 1 22.2
2020-May-30 05:27 247 1 gusting 1 25.0
2020-May-30 05:17 247 3 gusting 4 25.0
2020-May-30 05:07 247 3 gusting 4 25.0
2020-May-30 04:57 225 3 gusting 3 25.6
2020-May-30 04:47 180 1 gusting 2 25.6
2020-May-30 04:38 157 2 gusting 4 25.6
2020-May-30 04:28 157 2 gusting 3 25.0
2020-May-30 03:57 135 1 gusting 1 25.0
2020-May-30 03:47 135 2 gusting 3 25.6
2020-May-30 03:37 157 3 gusting 4 26.7
2020-May-30 03:27 180 1 gusting 2 27.2
2020-May-30 03:17 180 2 gusting 2 27.2
2020-May-30 03:07 157 3 gusting 4 26.7
2020-May-30 02:57 157 3 gusting 4 26.7
2020-May-30 02:47 180 2 gusting 3 27.8
2020-May-30 02:37 180 3 gusting 4 28.9
2020-May-30 02:27 180 2 gusting 3 28.9
2020-May-30 02:17 157 4 gusting 6 29.4
2020-May-30 02:07 180 4 gusting 6 29.4
2020-May-30 01:57 202 5 gusting 5 29.4
2020-May-30 01:47 225 5 gusting 6 30.0
2020-May-30 01:37 225 4 gusting 6 30.0
2020-May-30 01:27 225 5 gusting 6 30.6
2020-May-30 01:17 225 6 gusting 8 31.1
2020-May-30 01:07 225 7 gusting 9 31.1
2020-May-30 00:57 225 6 gusting 7 31.7
2020-May-30 00:47 225 7 gusting 9 32.2
2020-May-30 00:37 225 8 gusting 10 32.2
2020-May-30 00:27 225 8 gusting 10 32.8
2020-May-30 00:17 225 10 gusting 11 33.3
2020-May-30 00:07 225 7 gusting 10 33.9
2020-May-29 23:57 225 8 gusting 10 33.9
2020-May-29 23:47 225 6 gusting 8 33.9
2020-May-29 23:37 225 6 gusting 9 34.4
2020-May-29 23:27 225 7 gusting 9 34.4
2020-May-29 23:17 225 6 gusting 8 34.4
2020-May-29 23:07 247 6 gusting 9 35.0
2020-May-29 22:57 225 6 gusting 7 35.0
2020-May-29 22:47 225 8 gusting 10 35.0
2020-May-29 22:37 225 7 gusting 8 35.0
2020-May-29 22:27 225 6 gusting 8 35.0
2020-May-29 22:17 225 8 gusting 10 34.4
2020-May-29 22:07 225 6 gusting 7 34.4
2020-May-29 21:57 225 6 gusting 9 35.0
2020-May-29 21:47 202 6 gusting 7 34.4
2020-May-29 21:37 225 6 gusting 9 34.4
2020-May-29 21:27 225 6 gusting 10 34.4
2020-May-29 21:17 225 6 gusting 8 34.4
2020-May-29 21:07 225 8 gusting 11 33.9
2020-May-29 20:57 225 9 gusting 12 34.4
2020-May-29 20:47 225 8 gusting 12 34.4
2020-May-29 20:37 225 12 gusting 14 35.0
2020-May-29 20:27 202 7 gusting 11 35.0
2020-May-29 20:17 157 7 gusting 9 35.0
2020-May-29 20:07 202 7 gusting 10 35.0
2020-May-29 19:57 225 5 gusting 6 35.0
2020-May-29 19:47 157 7 gusting 9 35.0
2020-May-29 19:37 157 8 gusting 11 35.0
2020-May-29 19:27 157 6 gusting 9 35.0
2020-May-29 19:17 180 6 gusting 9 34.4
2020-May-29 19:07 157 6 gusting 8 34.4
2020-May-29 18:57 157 7 gusting 11 34.4
2020-May-29 18:47 157 5 gusting 7 34.4
2020-May-29 18:37 157 5 gusting 8 34.4
2020-May-29 18:27 157 6 gusting 9 33.9
2020-May-29 18:17 157 6 gusting 8 33.9
2020-May-29 18:07 135 5 gusting 6 33.9
2020-May-29 17:57 135 5 gusting 6 33.3
2020-May-29 17:47 157 6 gusting 8 33.3
2020-May-29 17:37 157 6 gusting 7 32.8
2020-May-29 17:27 135 3 gusting 4 32.2
2020-May-29 17:17 157 4 gusting 6 32.2
2020-May-29 17:07 135 4 gusting 6 31.7
2020-May-29 16:57 180 6 gusting 9 31.7
2020-May-29 16:47 135 4 gusting 6 31.1
2020-May-29 16:37 135 2 gusting 3 30.6
2020-May-29 16:27 180 4 gusting 5 30.6
2020-May-29 16:17 202 1 gusting 2 30.0
2020-May-29 16:07 157 3 gusting 6 29.4
2020-May-29 15:57 157 2 gusting 3 29.4
2020-May-29 15:47 135 0 gusting 1 29.4
2020-May-29 15:37 135 1 gusting 2 28.9
2020-May-29 15:27 112 0 gusting 2 28.9
2020-May-29 15:17 112 2 gusting 3 28.3
2020-May-29 15:07 090 4 gusting 6 28.3
2020-May-29 14:57 090 2 gusting 3 27.8
2020-May-29 14:47 067 2 gusting 3 27.2
2020-May-29 14:37 067 4 gusting 5 26.7
2020-May-29 14:27 090 3 gusting 3 25.6
2020-May-29 14:17 090 2 gusting 3 25.0
2020-May-29 14:07 090 2 gusting 3 24.4
2020-May-29 13:57 090 2 gusting 3 23.3
2020-May-29 13:47 090 2 gusting 3 22.8
2020-May-29 13:37 090 1 gusting 2 22.2
2020-May-29 13:27 067 1 gusting 2 21.7
2020-May-29 13:17 067 1 gusting 1 21.1
2020-May-29 13:07 067 1 gusting 1 20.6